sensor_id;sensor_type;location;lat;lon;timestamp;temperature;humidity
63317;DHT22;49822;41.468;13.560;2022-12-08T00:01:29;8.40;93.60
63317;DHT22;49822;41.468;13.560;2022-12-08T00:04:01;8.50;95.10
63317;DHT22;49822;41.468;13.560;2022-12-08T00:06:36;8.50;94.60
63317;DHT22;49822;41.468;13.560;2022-12-08T00:09:38;8.60;96.30
63317;DHT22;49822;41.468;13.560;2022-12-08T00:12:11;8.40;94.90
63317;DHT22;49822;41.468;13.560;2022-12-08T00:14:42;8.50;95.80
63317;DHT22;49822;41.468;13.560;2022-12-08T00:17:12;8.60;96.20
63317;DHT22;49822;41.468;13.560;2022-12-08T00:19:42;8.40;94.90
63317;DHT22;49822;41.468;13.560;2022-12-08T00:22:10;8.20;95.20
63317;DHT22;49822;41.468;13.560;2022-12-08T00:24:39;8.30;96.40
63317;DHT22;49822;41.468;13.560;2022-12-08T00:27:08;8.60;96.90
63317;DHT22;49822;41.468;13.560;2022-12-08T00:29:36;8.60;96.40
63317;DHT22;49822;41.468;13.560;2022-12-08T00:32:05;8.10;94.80
63317;DHT22;49822;41.468;13.560;2022-12-08T00:34:33;8.20;95.30
63317;DHT22;49822;41.468;13.560;2022-12-08T00:37:01;8.20;95.70
63317;DHT22;49822;41.468;13.560;2022-12-08T00:39:30;8.30;95.90
63317;DHT22;49822;41.468;13.560;2022-12-08T00:41:58;8.00;96.10
63317;DHT22;49822;41.468;13.560;2022-12-08T00:44:42;8.20;96.90
63317;DHT22;49822;41.468;13.560;2022-12-08T00:47:11;8.30;97.40
63317;DHT22;49822;41.468;13.560;2022-12-08T00:49:39;8.60;97.90
63317;DHT22;49822;41.468;13.560;2022-12-08T00:52:07;8.80;97.90
63317;DHT22;49822;41.468;13.560;2022-12-08T00:54:35;8.60;97.20
63317;DHT22;49822;41.468;13.560;2022-12-08T00:57:02;8.20;95.70
63317;DHT22;49822;41.468;13.560;2022-12-08T00:59:31;8.30;96.30
63317;DHT22;49822;41.468;13.560;2022-12-08T01:02:00;8.20;95.60
63317;DHT22;49822;41.468;13.560;2022-12-08T01:04:28;8.20;96.20
63317;DHT22;49822;41.468;13.560;2022-12-08T01:06:56;8.40;96.70
63317;DHT22;49822;41.468;13.560;2022-12-08T01:09:23;8.60;96.80
63317;DHT22;49822;41.468;13.560;2022-12-08T01:11:51;8.80;97.00
63317;DHT22;49822;41.468;13.560;2022-12-08T01:14:19;8.10;93.90
63317;DHT22;49822;41.468;13.560;2022-12-08T01:16:47;7.80;94.20
63317;DHT22;49822;41.468;13.560;2022-12-08T01:19:16;7.80;95.70
63317;DHT22;49822;41.468;13.560;2022-12-08T01:21:45;8.00;97.20
63317;DHT22;49822;41.468;13.560;2022-12-08T01:24:16;8.30;97.90
63317;DHT22;49822;41.468;13.560;2022-12-08T01:26:44;8.30;97.50
63317;DHT22;49822;41.468;13.560;2022-12-08T01:29:12;8.40;97.90
63317;DHT22;49822;41.468;13.560;2022-12-08T01:31:40;8.40;97.80
63317;DHT22;49822;41.468;13.560;2022-12-08T01:34:08;8.50;97.80
63317;DHT22;49822;41.468;13.560;2022-12-08T01:36:36;8.50;97.80
63317;DHT22;49822;41.468;13.560;2022-12-08T01:39:07;8.20;97.00
63317;DHT22;49822;41.468;13.560;2022-12-08T01:41:38;8.60;98.20
63317;DHT22;49822;41.468;13.560;2022-12-08T01:46:41;8.80;98.00
63317;DHT22;49822;41.468;13.560;2022-12-08T01:49:12;9.00;98.30
63317;DHT22;49822;41.468;13.560;2022-12-08T01:51:51;8.00;94.10
63317;DHT22;49822;41.468;13.560;2022-12-08T01:54:24;7.90;95.40
63317;DHT22;49822;41.468;13.560;2022-12-08T01:57:13;8.10;96.30
63317;DHT22;49822;41.468;13.560;2022-12-08T01:59:47;8.10;95.60
63317;DHT22;49822;41.468;13.560;2022-12-08T02:02:16;8.00;95.10
63317;DHT22;49822;41.468;13.560;2022-12-08T02:04:44;8.10;95.40
63317;DHT22;49822;41.468;13.560;2022-12-08T02:07:13;7.40;92.80
63317;DHT22;49822;41.468;13.560;2022-12-08T02:09:43;7.50;95.60
63317;DHT22;49822;41.468;13.560;2022-12-08T02:12:11;7.70;96.00
63317;DHT22;49822;41.468;13.560;2022-12-08T02:14:39;7.60;95.70
63317;DHT22;49822;41.468;13.560;2022-12-08T02:25:18;7.90;96.70
63317;DHT22;49822;41.468;13.560;2022-12-08T02:36:17;8.40;96.60
63317;DHT22;49822;41.468;13.560;2022-12-08T02:39:08;8.40;96.10
63317;DHT22;49822;41.468;13.560;2022-12-08T02:44:37;8.10;95.70
63317;DHT22;49822;41.468;13.560;2022-12-08T02:47:15;8.00;95.40
63317;DHT22;49822;41.468;13.560;2022-12-08T02:49:43;8.10;96.50
63317;DHT22;49822;41.468;13.560;2022-12-08T02:55:08;8.10;95.70
63317;DHT22;49822;41.468;13.560;2022-12-08T02:58:28;8.40;96.60
63317;DHT22;49822;41.468;13.560;2022-12-08T03:04:40;7.40;94.50
63317;DHT22;49822;41.468;13.560;2022-12-08T03:09:53;8.10;96.50
63317;DHT22;49822;41.468;13.560;2022-12-08T03:12:30;8.10;96.10
63317;DHT22;49822;41.468;13.560;2022-12-08T03:15:05;8.00;94.50
63317;DHT22;49822;41.468;13.560;2022-12-08T03:17:36;7.50;94.70
63317;DHT22;49822;41.468;13.560;2022-12-08T03:20:10;7.80;96.10
63317;DHT22;49822;41.468;13.560;2022-12-08T03:22:40;7.80;96.10
63317;DHT22;49822;41.468;13.560;2022-12-08T03:25:13;8.10;97.20
63317;DHT22;49822;41.468;13.560;2022-12-08T03:27:41;8.40;97.60
63317;DHT22;49822;41.468;13.560;2022-12-08T03:30:10;8.50;97.30
63317;DHT22;49822;41.468;13.560;2022-12-08T03:35:17;8.60;96.90
63317;DHT22;49822;41.468;13.560;2022-12-08T03:37:46;8.60;96.60
63317;DHT22;49822;41.468;13.560;2022-12-08T03:40:17;8.60;95.90
63317;DHT22;49822;41.468;13.560;2022-12-08T03:42:45;8.50;95.90
63317;DHT22;49822;41.468;13.560;2022-12-08T03:45:12;8.60;96.10
63317;DHT22;49822;41.468;13.560;2022-12-08T03:47:39;8.30;94.00
63317;DHT22;49822;41.468;13.560;2022-12-08T03:50:08;7.90;93.00
63317;DHT22;49822;41.468;13.560;2022-12-08T03:52:35;7.80;94.30
63317;DHT22;49822;41.468;13.560;2022-12-08T03:55:04;8.00;95.40
63317;DHT22;49822;41.468;13.560;2022-12-08T03:57:33;8.30;96.10
63317;DHT22;49822;41.468;13.560;2022-12-08T04:00:02;8.60;97.00
63317;DHT22;49822;41.468;13.560;2022-12-08T04:02:32;8.80;96.70
63317;DHT22;49822;41.468;13.560;2022-12-08T04:05:00;8.80;95.90
63317;DHT22;49822;41.468;13.560;2022-12-08T04:07:28;8.50;94.90
63317;DHT22;49822;41.468;13.560;2022-12-08T04:09:56;8.50;95.00
63317;DHT22;49822;41.468;13.560;2022-12-08T04:12:24;8.40;95.00
63317;DHT22;49822;41.468;13.560;2022-12-08T04:15:05;8.40;95.40
63317;DHT22;49822;41.468;13.560;2022-12-08T04:17:32;8.30;95.10
63317;DHT22;49822;41.468;13.560;2022-12-08T04:20:01;8.30;95.40
63317;DHT22;49822;41.468;13.560;2022-12-08T04:22:29;8.30;95.50
63317;DHT22;49822;41.468;13.560;2022-12-08T04:24:57;8.30;95.40
63317;DHT22;49822;41.468;13.560;2022-12-08T04:27:24;8.30;95.20
63317;DHT22;49822;41.468;13.560;2022-12-08T04:29:52;8.20;95.10
63317;DHT22;49822;41.468;13.560;2022-12-08T04:32:19;8.40;95.70
63317;DHT22;49822;41.468;13.560;2022-12-08T04:34:47;8.50;95.90
63317;DHT22;49822;41.468;13.560;2022-12-08T04:37:14;8.50;95.50
63317;DHT22;49822;41.468;13.560;2022-12-08T04:39:42;8.50;95.30
63317;DHT22;49822;41.468;13.560;2022-12-08T04:42:09;8.50;95.00
63317;DHT22;49822;41.468;13.560;2022-12-08T04:44:37;8.40;94.80
63317;DHT22;49822;41.468;13.560;2022-12-08T04:47:05;8.40;94.80
63317;DHT22;49822;41.468;13.560;2022-12-08T04:49:33;8.30;94.00
63317;DHT22;49822;41.468;13.560;2022-12-08T04:52:00;8.10;93.70
63317;DHT22;49822;41.468;13.560;2022-12-08T04:54:28;8.10;94.40
63317;DHT22;49822;41.468;13.560;2022-12-08T04:56:56;8.20;94.70
63317;DHT22;49822;41.468;13.560;2022-12-08T04:59:24;8.20;94.40
63317;DHT22;49822;41.468;13.560;2022-12-08T05:01:52;8.20;94.40
63317;DHT22;49822;41.468;13.560;2022-12-08T05:04:20;8.10;93.90
63317;DHT22;49822;41.468;13.560;2022-12-08T05:06:48;8.00;94.10
63317;DHT22;49822;41.468;13.560;2022-12-08T05:09:15;8.10;94.60
63317;DHT22;49822;41.468;13.560;2022-12-08T05:11:43;8.30;94.70
63317;DHT22;49822;41.468;13.560;2022-12-08T05:14:16;8.30;94.50
63317;DHT22;49822;41.468;13.560;2022-12-08T05:16:46;8.30;94.40
63317;DHT22;49822;41.468;13.560;2022-12-08T05:19:14;8.30;94.40
63317;DHT22;49822;41.468;13.560;2022-12-08T05:21:42;8.30;93.90
63317;DHT22;49822;41.468;13.560;2022-12-08T05:24:10;8.30;94.00
63317;DHT22;49822;41.468;13.560;2022-12-08T05:26:38;8.30;93.90
63317;DHT22;49822;41.468;13.560;2022-12-08T05:29:05;8.10;93.20
63317;DHT22;49822;41.468;13.560;2022-12-08T05:31:32;8.10;93.60
63317;DHT22;49822;41.468;13.560;2022-12-08T05:34:00;8.10;94.00
63317;DHT22;49822;41.468;13.560;2022-12-08T05:36:29;8.10;94.60
63317;DHT22;49822;41.468;13.560;2022-12-08T05:38:57;8.30;94.80
63317;DHT22;49822;41.468;13.560;2022-12-08T05:41:25;8.30;94.60
63317;DHT22;49822;41.468;13.560;2022-12-08T05:43:53;8.30;94.60
63317;DHT22;49822;41.468;13.560;2022-12-08T05:46:21;8.30;94.40
63317;DHT22;49822;41.468;13.560;2022-12-08T05:48:49;8.10;93.90
63317;DHT22;49822;41.468;13.560;2022-12-08T05:51:19;8.00;94.80
63317;DHT22;49822;41.468;13.560;2022-12-08T05:53:50;8.10;96.10
63317;DHT22;49822;41.468;13.560;2022-12-08T05:56:17;8.30;96.60
63317;DHT22;49822;41.468;13.560;2022-12-08T05:58:46;8.30;96.40
63317;DHT22;49822;41.468;13.560;2022-12-08T06:01:37;8.30;96.10
63317;DHT22;49822;41.468;13.560;2022-12-08T06:04:06;8.30;96.00
63317;DHT22;49822;41.468;13.560;2022-12-08T06:06:34;8.30;95.90
63317;DHT22;49822;41.468;13.560;2022-12-08T06:09:03;8.40;96.20
63317;DHT22;49822;41.468;13.560;2022-12-08T06:11:31;8.50;96.00
63317;DHT22;49822;41.468;13.560;2022-12-08T06:14:15;8.30;95.40
63317;DHT22;49822;41.468;13.560;2022-12-08T06:17:06;8.40;96.20
63317;DHT22;49822;41.468;13.560;2022-12-08T06:19:33;8.50;96.30
63317;DHT22;49822;41.468;13.560;2022-12-08T06:22:01;8.50;96.00
63317;DHT22;49822;41.468;13.560;2022-12-08T06:24:28;8.50;96.20
63317;DHT22;49822;41.468;13.560;2022-12-08T06:26:56;8.20;95.70
63317;DHT22;49822;41.468;13.560;2022-12-08T06:29:24;8.20;96.80
63317;DHT22;49822;41.468;13.560;2022-12-08T06:31:53;8.30;97.60
63317;DHT22;49822;41.468;13.560;2022-12-08T06:34:22;8.50;98.00
63317;DHT22;49822;41.468;13.560;2022-12-08T06:36:50;8.60;98.00
63317;DHT22;49822;41.468;13.560;2022-12-08T06:39:17;8.90;98.50
63317;DHT22;49822;41.468;13.560;2022-12-08T06:41:44;8.80;97.70
63317;DHT22;49822;41.468;13.560;2022-12-08T06:44:30;8.70;97.40
63317;DHT22;49822;41.468;13.560;2022-12-08T06:46:59;8.70;97.30
63317;DHT22;49822;41.468;13.560;2022-12-08T06:49:26;8.70;97.30
63317;DHT22;49822;41.468;13.560;2022-12-08T06:51:55;8.80;97.20
63317;DHT22;49822;41.468;13.560;2022-12-08T06:54:23;8.80;97.00
63317;DHT22;49822;41.468;13.560;2022-12-08T06:56:50;8.60;96.80
63317;DHT22;49822;41.468;13.560;2022-12-08T06:59:18;8.60;96.70
63317;DHT22;49822;41.468;13.560;2022-12-08T07:01:46;8.50;96.50
63317;DHT22;49822;41.468;13.560;2022-12-08T07:04:14;8.50;96.70
63317;DHT22;49822;41.468;13.560;2022-12-08T07:06:42;8.60;96.80
63317;DHT22;49822;41.468;13.560;2022-12-08T07:09:11;8.70;97.00
63317;DHT22;49822;41.468;13.560;2022-12-08T07:11:38;8.80;96.80
63317;DHT22;49822;41.468;13.560;2022-12-08T07:14:06;8.60;96.20
63317;DHT22;49822;41.468;13.560;2022-12-08T07:16:34;8.60;96.60
63317;DHT22;49822;41.468;13.560;2022-12-08T07:19:03;8.60;96.90
63317;DHT22;49822;41.468;13.560;2022-12-08T07:21:30;8.70;96.60
63317;DHT22;49822;41.468;13.560;2022-12-08T07:23:57;8.60;96.30
63317;DHT22;49822;41.468;13.560;2022-12-08T07:26:25;8.60;96.40
63317;DHT22;49822;41.468;13.560;2022-12-08T07:28:53;8.80;96.80
63317;DHT22;49822;41.468;13.560;2022-12-08T07:31:23;8.80;96.80
63317;DHT22;49822;41.468;13.560;2022-12-08T07:33:51;9.00;97.00
63317;DHT22;49822;41.468;13.560;2022-12-08T07:36:22;9.10;96.90
63317;DHT22;49822;41.468;13.560;2022-12-08T07:38:53;9.10;96.70
63317;DHT22;49822;41.468;13.560;2022-12-08T07:41:22;9.20;96.80
63317;DHT22;49822;41.468;13.560;2022-12-08T07:43:52;9.40;96.60
63317;DHT22;49822;41.468;13.560;2022-12-08T07:46:21;9.40;96.40
63317;DHT22;49822;41.468;13.560;2022-12-08T07:48:51;9.50;96.40
63317;DHT22;49822;41.468;13.560;2022-12-08T07:51:20;9.60;95.90
63317;DHT22;49822;41.468;13.560;2022-12-08T07:53:49;9.70;95.90
63317;DHT22;49822;41.468;13.560;2022-12-08T07:56:21;9.90;95.60
63317;DHT22;49822;41.468;13.560;2022-12-08T07:58:48;10.10;95.20
63317;DHT22;49822;41.468;13.560;2022-12-08T08:01:28;10.50;95.10
63317;DHT22;49822;41.468;13.560;2022-12-08T08:03:58;10.70;94.00
63317;DHT22;49822;41.468;13.560;2022-12-08T08:06:29;10.80;91.70
63317;DHT22;49822;41.468;13.560;2022-12-08T08:08:57;10.50;90.30
63317;DHT22;49822;41.468;13.560;2022-12-08T08:11:25;10.40;91.50
63317;DHT22;49822;41.468;13.560;2022-12-08T08:13:52;10.40;92.10
63317;DHT22;49822;41.468;13.560;2022-12-08T08:16:21;10.40;91.40
63317;DHT22;49822;41.468;13.560;2022-12-08T08:18:50;10.30;92.50
63317;DHT22;49822;41.468;13.560;2022-12-08T08:21:20;10.50;93.20
63317;DHT22;49822;41.468;13.560;2022-12-08T08:24:10;10.60;93.20
63317;DHT22;49822;41.468;13.560;2022-12-08T08:26:37;10.60;93.10
63317;DHT22;49822;41.468;13.560;2022-12-08T08:29:05;10.70;92.50
63317;DHT22;49822;41.468;13.560;2022-12-08T08:31:32;10.80;92.20
63317;DHT22;49822;41.468;13.560;2022-12-08T08:34:00;10.80;91.40
63317;DHT22;49822;41.468;13.560;2022-12-08T08:36:32;10.80;90.80
63317;DHT22;49822;41.468;13.560;2022-12-08T08:38:59;10.80;91.00
63317;DHT22;49822;41.468;13.560;2022-12-08T08:41:27;10.90;91.40
63317;DHT22;49822;41.468;13.560;2022-12-08T08:43:55;10.90;91.40
63317;DHT22;49822;41.468;13.560;2022-12-08T08:46:23;10.90;91.70
63317;DHT22;49822;41.468;13.560;2022-12-08T08:48:51;10.90;91.90
63317;DHT22;49822;41.468;13.560;2022-12-08T08:51:18;10.80;92.00
63317;DHT22;49822;41.468;13.560;2022-12-08T08:53:47;10.80;92.50
63317;DHT22;49822;41.468;13.560;2022-12-08T08:56:17;10.80;92.70
63317;DHT22;49822;41.468;13.560;2022-12-08T08:58:49;10.80;93.00
63317;DHT22;49822;41.468;13.560;2022-12-08T09:01:19;10.70;93.00
63317;DHT22;49822;41.468;13.560;2022-12-08T09:03:48;10.70;93.10
63317;DHT22;49822;41.468;13.560;2022-12-08T09:06:16;10.50;93.10
63317;DHT22;49822;41.468;13.560;2022-12-08T09:08:44;10.30;93.90
63317;DHT22;49822;41.468;13.560;2022-12-08T09:11:13;10.30;94.60
63317;DHT22;49822;41.468;13.560;2022-12-08T09:13:40;10.30;94.90
63317;DHT22;49822;41.468;13.560;2022-12-08T09:16:08;10.30;95.00
63317;DHT22;49822;41.468;13.560;2022-12-08T09:18:37;10.30;95.20
63317;DHT22;49822;41.468;13.560;2022-12-08T09:21:15;10.30;95.30
63317;DHT22;49822;41.468;13.560;2022-12-08T09:23:46;10.30;95.10
63317;DHT22;49822;41.468;13.560;2022-12-08T09:26:14;10.30;95.30
63317;DHT22;49822;41.468;13.560;2022-12-08T09:28:44;10.40;95.10
63317;DHT22;49822;41.468;13.560;2022-12-08T09:31:13;10.40;95.00
63317;DHT22;49822;41.468;13.560;2022-12-08T09:33:41;10.40;95.00
63317;DHT22;49822;41.468;13.560;2022-12-08T09:36:13;10.30;94.90
63317;DHT22;49822;41.468;13.560;2022-12-08T09:38:45;10.40;95.50
63317;DHT22;49822;41.468;13.560;2022-12-08T09:41:17;10.50;95.80
63317;DHT22;49822;41.468;13.560;2022-12-08T09:46:51;10.70;96.00
63317;DHT22;49822;41.468;13.560;2022-12-08T09:49:26;10.70;95.90
63317;DHT22;49822;41.468;13.560;2022-12-08T09:51:57;10.80;95.90
63317;DHT22;49822;41.468;13.560;2022-12-08T09:54:32;10.80;95.70
63317;DHT22;49822;41.468;13.560;2022-12-08T09:57:06;10.90;95.90
63317;DHT22;49822;41.468;13.560;2022-12-08T09:59:35;10.90;95.80
63317;DHT22;49822;41.468;13.560;2022-12-08T10:02:17;10.90;95.60
63317;DHT22;49822;41.468;13.560;2022-12-08T10:04:46;10.90;95.80
63317;DHT22;49822;41.468;13.560;2022-12-08T10:07:26;10.90;95.80
63317;DHT22;49822;41.468;13.560;2022-12-08T10:15:50;11.00;96.00
63317;DHT22;49822;41.468;13.560;2022-12-08T10:18:28;10.80;96.20
63317;DHT22;49822;41.468;13.560;2022-12-08T10:21:19;10.80;96.50
63317;DHT22;49822;41.468;13.560;2022-12-08T10:23:54;10.90;96.90
63317;DHT22;49822;41.468;13.560;2022-12-08T10:26:25;10.90;96.80
63317;DHT22;49822;41.468;13.560;2022-12-08T10:28:53;10.90;96.50
63317;DHT22;49822;41.468;13.560;2022-12-08T10:31:24;10.80;96.20
63317;DHT22;49822;41.468;13.560;2022-12-08T10:33:59;10.80;96.50
63317;DHT22;49822;41.468;13.560;2022-12-08T10:36:56;10.90;96.70
63317;DHT22;49822;41.468;13.560;2022-12-08T10:39:33;11.00;96.70
63317;DHT22;49822;41.468;13.560;2022-12-08T10:47:20;11.30;96.80
63317;DHT22;49822;41.468;13.560;2022-12-08T10:52:39;11.40;96.60
63317;DHT22;49822;41.468;13.560;2022-12-08T10:55:16;11.50;96.20
63317;DHT22;49822;41.468;13.560;2022-12-08T10:57:45;11.50;95.70
63317;DHT22;49822;41.468;13.560;2022-12-08T11:00:17;11.60;95.70
63317;DHT22;49822;41.468;13.560;2022-12-08T11:03:01;11.70;95.50
63317;DHT22;49822;41.468;13.560;2022-12-08T11:05:34;11.70;95.10
63317;DHT22;49822;41.468;13.560;2022-12-08T11:08:04;11.90;94.80
63317;DHT22;49822;41.468;13.560;2022-12-08T11:10:41;12.00;94.10
63317;DHT22;49822;41.468;13.560;2022-12-08T11:13:29;12.10;93.70
63317;DHT22;49822;41.468;13.560;2022-12-08T11:16:00;12.00;93.20
63317;DHT22;49822;41.468;13.560;2022-12-08T11:18:42;12.00;93.10
63317;DHT22;49822;41.468;13.560;2022-12-08T11:21:18;11.90;92.80
63317;DHT22;49822;41.468;13.560;2022-12-08T11:23:48;11.70;93.40
63317;DHT22;49822;41.468;13.560;2022-12-08T11:26:34;11.70;94.00
63317;DHT22;49822;41.468;13.560;2022-12-08T11:29:03;11.70;94.00
63317;DHT22;49822;41.468;13.560;2022-12-08T11:31:33;11.50;94.10
63317;DHT22;49822;41.468;13.560;2022-12-08T11:34:02;11.50;94.60
63317;DHT22;49822;41.468;13.560;2022-12-08T11:36:32;11.50;94.50
63317;DHT22;49822;41.468;13.560;2022-12-08T11:39:04;11.40;94.60
63317;DHT22;49822;41.468;13.560;2022-12-08T11:41:41;11.30;94.70
63317;DHT22;49822;41.468;13.560;2022-12-08T11:46:55;11.40;95.50
63317;DHT22;49822;41.468;13.560;2022-12-08T11:49:36;11.50;95.10
63317;DHT22;49822;41.468;13.560;2022-12-08T11:55:28;11.70;94.70
63317;DHT22;49822;41.468;13.560;2022-12-08T11:58:17;11.70;94.30
63317;DHT22;49822;41.468;13.560;2022-12-08T12:00:46;11.70;94.00
63317;DHT22;49822;41.468;13.560;2022-12-08T12:03:37;11.80;94.10
63317;DHT22;49822;41.468;13.560;2022-12-08T12:23:45;12.70;92.10
63317;DHT22;49822;41.468;13.560;2022-12-08T12:26:23;12.80;91.70
63317;DHT22;49822;41.468;13.560;2022-12-08T12:29:15;12.80;91.00
63317;DHT22;49822;41.468;13.560;2022-12-08T12:31:51;12.80;89.50
63317;DHT22;49822;41.468;13.560;2022-12-08T12:37:31;12.70;89.20
63317;DHT22;49822;41.468;13.560;2022-12-08T12:40:05;12.60;89.40
63317;DHT22;49822;41.468;13.560;2022-12-08T12:42:44;12.50;89.60
63317;DHT22;49822;41.468;13.560;2022-12-08T12:47:49;12.20;91.10
63317;DHT22;49822;41.468;13.560;2022-12-08T12:53:04;12.10;92.60
63317;DHT22;49822;41.468;13.560;2022-12-08T13:03:50;12.00;93.10
63317;DHT22;49822;41.468;13.560;2022-12-08T13:06:43;12.10;93.20
63317;DHT22;49822;41.468;13.560;2022-12-08T13:09:20;12.20;93.40
63317;DHT22;49822;41.468;13.560;2022-12-08T13:11:53;12.30;93.20
63317;DHT22;49822;41.468;13.560;2022-12-08T13:14:26;12.30;93.20
63317;DHT22;49822;41.468;13.560;2022-12-08T13:16:57;12.30;93.20
63317;DHT22;49822;41.468;13.560;2022-12-08T13:19:25;12.20;93.40
63317;DHT22;49822;41.468;13.560;2022-12-08T13:21:56;12.20;93.40
63317;DHT22;49822;41.468;13.560;2022-12-08T13:29:34;12.00;94.10
63317;DHT22;49822;41.468;13.560;2022-12-08T13:44:54;12.30;94.50
63317;DHT22;49822;41.468;13.560;2022-12-08T13:47:51;12.30;94.50
63317;DHT22;49822;41.468;13.560;2022-12-08T13:53:40;12.30;94.00
63317;DHT22;49822;41.468;13.560;2022-12-08T13:56:30;12.20;93.90
63317;DHT22;49822;41.468;13.560;2022-12-08T14:01:49;12.00;94.70
63317;DHT22;49822;41.468;13.560;2022-12-08T14:04:27;12.00;95.10
63317;DHT22;49822;41.468;13.560;2022-12-08T14:07:15;12.00;95.30
63317;DHT22;49822;41.468;13.560;2022-12-08T14:09:42;12.10;95.50
63317;DHT22;49822;41.468;13.560;2022-12-08T14:12:17;12.10;95.60
63317;DHT22;49822;41.468;13.560;2022-12-08T14:14:49;12.10;95.70
63317;DHT22;49822;41.468;13.560;2022-12-08T14:17:31;12.00;95.90
63317;DHT22;49822;41.468;13.560;2022-12-08T14:20:22;12.00;95.50
63317;DHT22;49822;41.468;13.560;2022-12-08T14:22:52;11.90;95.30
63317;DHT22;49822;41.468;13.560;2022-12-08T14:25:20;11.90;95.60
63317;DHT22;49822;41.468;13.560;2022-12-08T14:27:49;11.90;95.70
63317;DHT22;49822;41.468;13.560;2022-12-08T14:30:27;11.70;95.70
63317;DHT22;49822;41.468;13.560;2022-12-08T14:33:03;11.70;96.30
63317;DHT22;49822;41.468;13.560;2022-12-08T14:35:33;11.70;96.70
63317;DHT22;49822;41.468;13.560;2022-12-08T14:38:12;11.80;97.00
63317;DHT22;49822;41.468;13.560;2022-12-08T14:40:45;11.80;96.80
63317;DHT22;49822;41.468;13.560;2022-12-08T14:43:19;11.90;97.10
63317;DHT22;49822;41.468;13.560;2022-12-08T14:45:58;11.90;97.10
63317;DHT22;49822;41.468;13.560;2022-12-08T14:51:04;11.70;96.70
63317;DHT22;49822;41.468;13.560;2022-12-08T14:53:40;11.60;96.90
63317;DHT22;49822;41.468;13.560;2022-12-08T14:56:21;11.60;97.20
63317;DHT22;49822;41.468;13.560;2022-12-08T15:01:38;11.70;97.60
63317;DHT22;49822;41.468;13.560;2022-12-08T15:04:14;11.70;97.40
63317;DHT22;49822;41.468;13.560;2022-12-08T15:10:16;11.70;97.20
63317;DHT22;49822;41.468;13.560;2022-12-08T15:15:56;11.50;97.50
63317;DHT22;49822;41.468;13.560;2022-12-08T15:18:37;11.50;97.50
63317;DHT22;49822;41.468;13.560;2022-12-08T15:21:07;11.50;97.80
63317;DHT22;49822;41.468;13.560;2022-12-08T15:23:44;11.50;98.00
63317;DHT22;49822;41.468;13.560;2022-12-08T15:26:22;11.60;97.90
63317;DHT22;49822;41.468;13.560;2022-12-08T15:28:51;11.70;97.90
63317;DHT22;49822;41.468;13.560;2022-12-08T15:31:21;11.70;98.00
63317;DHT22;49822;41.468;13.560;2022-12-08T15:33:48;11.70;97.90
63317;DHT22;49822;41.468;13.560;2022-12-08T15:36:16;11.70;97.80
63317;DHT22;49822;41.468;13.560;2022-12-08T15:38:44;11.80;97.70
63317;DHT22;49822;41.468;13.560;2022-12-08T15:41:12;11.80;97.50
63317;DHT22;49822;41.468;13.560;2022-12-08T15:43:41;11.70;97.10
63317;DHT22;49822;41.468;13.560;2022-12-08T15:46:10;11.70;96.80
63317;DHT22;49822;41.468;13.560;2022-12-08T15:48:38;11.70;96.60
63317;DHT22;49822;41.468;13.560;2022-12-08T15:51:06;11.70;96.60
63317;DHT22;49822;41.468;13.560;2022-12-08T15:53:34;11.70;96.50
63317;DHT22;49822;41.468;13.560;2022-12-08T15:56:05;11.70;96.60
63317;DHT22;49822;41.468;13.560;2022-12-08T15:58:54;11.70;96.60
63317;DHT22;49822;41.468;13.560;2022-12-08T16:01:23;11.70;96.10
63317;DHT22;49822;41.468;13.560;2022-12-08T16:03:52;11.70;95.70
63317;DHT22;49822;41.468;13.560;2022-12-08T16:06:41;11.40;95.20
63317;DHT22;49822;41.468;13.560;2022-12-08T16:09:36;11.10;95.70
63317;DHT22;49822;41.468;13.560;2022-12-08T16:12:16;11.10;96.80
63317;DHT22;49822;41.468;13.560;2022-12-08T16:15:23;11.10;97.40
63317;DHT22;49822;41.468;13.560;2022-12-08T16:18:15;11.30;98.00
63317;DHT22;49822;41.468;13.560;2022-12-08T16:20:43;11.50;98.00
63317;DHT22;49822;41.468;13.560;2022-12-08T16:23:32;11.40;97.50
63317;DHT22;49822;41.468;13.560;2022-12-08T16:26:15;11.30;97.30
63317;DHT22;49822;41.468;13.560;2022-12-08T16:29:04;11.30;97.20
63317;DHT22;49822;41.468;13.560;2022-12-08T16:31:32;11.30;97.30
63317;DHT22;49822;41.468;13.560;2022-12-08T16:34:00;11.30;97.30
63317;DHT22;49822;41.468;13.560;2022-12-08T16:36:29;11.30;97.20
63317;DHT22;49822;41.468;13.560;2022-12-08T16:38:57;11.30;97.20
63317;DHT22;49822;41.468;13.560;2022-12-08T16:41:24;11.30;97.20
63317;DHT22;49822;41.468;13.560;2022-12-08T16:44:11;11.30;97.10
63317;DHT22;49822;41.468;13.560;2022-12-08T16:46:40;11.30;97.10
63317;DHT22;49822;41.468;13.560;2022-12-08T16:49:08;11.20;97.10
63317;DHT22;49822;41.468;13.560;2022-12-08T16:51:38;10.90;95.80
63317;DHT22;49822;41.468;13.560;2022-12-08T16:54:08;10.80;97.00
63317;DHT22;49822;41.468;13.560;2022-12-08T16:56:35;10.90;97.90
63317;DHT22;49822;41.468;13.560;2022-12-08T16:59:03;10.90;97.50
63317;DHT22;49822;41.468;13.560;2022-12-08T17:01:31;10.80;98.10
63317;DHT22;49822;41.468;13.560;2022-12-08T17:03:58;11.00;98.50
63317;DHT22;49822;41.468;13.560;2022-12-08T17:06:46;11.00;98.40
63317;DHT22;49822;41.468;13.560;2022-12-08T17:09:14;10.90;98.00
63317;DHT22;49822;41.468;13.560;2022-12-08T17:11:41;10.80;97.90
63317;DHT22;49822;41.468;13.560;2022-12-08T17:14:11;10.70;97.90
63317;DHT22;49822;41.468;13.560;2022-12-08T17:16:39;10.70;98.20
63317;DHT22;49822;41.468;13.560;2022-12-08T17:19:08;10.70;98.30
63317;DHT22;49822;41.468;13.560;2022-12-08T17:21:46;10.70;98.30
63317;DHT22;49822;41.468;13.560;2022-12-08T17:24:51;10.70;98.40
63317;DHT22;49822;41.468;13.560;2022-12-08T17:27:27;10.80;98.90
63317;DHT22;49822;41.468;13.560;2022-12-08T17:29:55;11.00;99.00
63317;DHT22;49822;41.468;13.560;2022-12-08T17:32:23;11.00;98.80
63317;DHT22;49822;41.468;13.560;2022-12-08T17:34:51;10.90;98.30
63317;DHT22;49822;41.468;13.560;2022-12-08T17:37:19;10.90;98.30
63317;DHT22;49822;41.468;13.560;2022-12-08T17:39:53;11.00;98.20
63317;DHT22;49822;41.468;13.560;2022-12-08T17:42:21;10.90;97.90
63317;DHT22;49822;41.468;13.560;2022-12-08T17:44:53;10.70;97.30
63317;DHT22;49822;41.468;13.560;2022-12-08T17:47:21;10.60;97.50
63317;DHT22;49822;41.468;13.560;2022-12-08T17:49:49;10.60;97.80
63317;DHT22;49822;41.468;13.560;2022-12-08T17:52:16;10.50;97.50
63317;DHT22;49822;41.468;13.560;2022-12-08T17:54:45;10.40;97.50
63317;DHT22;49822;41.468;13.560;2022-12-08T17:57:12;10.30;97.80
63317;DHT22;49822;41.468;13.560;2022-12-08T17:59:42;10.30;98.20